sensor_id;sensor_type;location;lat;lon;timestamp;temperature;humidity
10911;DHT22;5508;49.150;11.030;2023-09-19T00:00:58;14.80;99.90
10911;DHT22;5508;49.150;11.030;2023-09-19T00:03:58;14.70;99.90
10911;DHT22;5508;49.150;11.030;2023-09-19T00:06:59;14.70;99.90
10911;DHT22;5508;49.150;11.030;2023-09-19T00:10:02;14.70;99.90
10911;DHT22;5508;49.150;11.030;2023-09-19T00:13:03;14.70;99.90
10911;DHT22;5508;49.150;11.030;2023-09-19T00:16:10;14.80;99.90
10911;DHT22;5508;49.150;11.030;2023-09-19T00:19:11;14.80;99.90
10911;DHT22;5508;49.150;11.030;2023-09-19T00:22:12;14.80;99.90
10911;DHT22;5508;49.150;11.030;2023-09-19T00:25:13;14.90;99.90
10911;DHT22;5508;49.150;11.030;2023-09-19T00:28:15;14.90;99.90
10911;DHT22;5508;49.150;11.030;2023-09-19T00:31:17;15.00;99.90
10911;DHT22;5508;49.150;11.030;2023-09-19T00:34:17;15.00;99.90
10911;DHT22;5508;49.150;11.030;2023-09-19T00:37:18;15.00;99.90
10911;DHT22;5508;49.150;11.030;2023-09-19T00:40:19;15.00;99.90
10911;DHT22;5508;49.150;11.030;2023-09-19T00:43:21;15.00;99.90
10911;DHT22;5508;49.150;11.030;2023-09-19T00:46:24;15.00;99.90
10911;DHT22;5508;49.150;11.030;2023-09-19T00:49:26;15.00;99.90
10911;DHT22;5508;49.150;11.030;2023-09-19T00:52:27;15.00;99.90
10911;DHT22;5508;49.150;11.030;2023-09-19T00:55:29;15.00;99.90
10911;DHT22;5508;49.150;11.030;2023-09-19T00:58:31;15.10;99.90
10911;DHT22;5508;49.150;11.030;2023-09-19T01:01:34;15.00;99.90
10911;DHT22;5508;49.150;11.030;2023-09-19T01:04:35;15.10;99.90
10911;DHT22;5508;49.150;11.030;2023-09-19T01:07:37;15.10;99.90
10911;DHT22;5508;49.150;11.030;2023-09-19T01:10:52;15.10;99.90
10911;DHT22;5508;49.150;11.030;2023-09-19T01:17:31;15.00;99.90
10911;DHT22;5508;49.150;11.030;2023-09-19T01:23:52;15.00;99.90
10911;DHT22;5508;49.150;11.030;2023-09-19T01:27:17;15.00;99.90
10911;DHT22;5508;49.150;11.030;2023-09-19T01:30:27;15.10;99.90
10911;DHT22;5508;49.150;11.030;2023-09-19T01:34:00;15.20;99.90
10911;DHT22;5508;49.150;11.030;2023-09-19T01:37:01;15.20;99.90
10911;DHT22;5508;49.150;11.030;2023-09-19T01:40:08;15.20;99.90
10911;DHT22;5508;49.150;11.030;2023-09-19T01:46:30;15.20;99.90
10911;DHT22;5508;49.150;11.030;2023-09-19T01:49:44;15.10;99.90
10911;DHT22;5508;49.150;11.030;2023-09-19T01:52:57;15.10;99.90
10911;DHT22;5508;49.150;11.030;2023-09-19T01:56:01;15.10;99.90
10911;DHT22;5508;49.150;11.030;2023-09-19T01:59:10;15.10;99.90
10911;DHT22;5508;49.150;11.030;2023-09-19T02:02:13;15.00;99.90
10911;DHT22;5508;49.150;11.030;2023-09-19T02:05:22;14.90;99.90
10911;DHT22;5508;49.150;11.030;2023-09-19T02:08:26;14.90;99.90
10911;DHT22;5508;49.150;11.030;2023-09-19T02:11:26;14.90;99.90
10911;DHT22;5508;49.150;11.030;2023-09-19T02:14:27;14.80;99.90
10911;DHT22;5508;49.150;11.030;2023-09-19T02:17:29;14.80;99.90
10911;DHT22;5508;49.150;11.030;2023-09-19T02:20:31;14.80;99.90
10911;DHT22;5508;49.150;11.030;2023-09-19T02:23:33;14.90;99.90
10911;DHT22;5508;49.150;11.030;2023-09-19T02:26:34;14.90;99.90
10911;DHT22;5508;49.150;11.030;2023-09-19T02:29:36;14.80;99.90
10911;DHT22;5508;49.150;11.030;2023-09-19T02:32:36;14.90;99.90
10911;DHT22;5508;49.150;11.030;2023-09-19T02:35:39;14.90;99.90
10911;DHT22;5508;49.150;11.030;2023-09-19T02:38:39;14.90;99.90
10911;DHT22;5508;49.150;11.030;2023-09-19T02:41:40;14.90;99.90
10911;DHT22;5508;49.150;11.030;2023-09-19T02:44:41;15.00;99.90
10911;DHT22;5508;49.150;11.030;2023-09-19T02:47:42;15.00;99.90
10911;DHT22;5508;49.150;11.030;2023-09-19T02:50:43;15.00;99.90
10911;DHT22;5508;49.150;11.030;2023-09-19T02:53:44;15.10;99.90
10911;DHT22;5508;49.150;11.030;2023-09-19T02:56:48;15.00;99.90
10911;DHT22;5508;49.150;11.030;2023-09-19T02:59:48;15.00;99.90
10911;DHT22;5508;49.150;11.030;2023-09-19T03:02:55;15.00;99.90
10911;DHT22;5508;49.150;11.030;2023-09-19T03:05:56;15.00;99.90
10911;DHT22;5508;49.150;11.030;2023-09-19T03:08:59;15.00;99.90
10911;DHT22;5508;49.150;11.030;2023-09-19T03:12:00;14.90;99.90
10911;DHT22;5508;49.150;11.030;2023-09-19T03:15:01;15.00;99.90
10911;DHT22;5508;49.150;11.030;2023-09-19T03:18:02;14.90;99.90
10911;DHT22;5508;49.150;11.030;2023-09-19T03:21:04;14.90;99.90
10911;DHT22;5508;49.150;11.030;2023-09-19T03:24:05;14.90;99.90
10911;DHT22;5508;49.150;11.030;2023-09-19T03:27:05;14.90;99.90
10911;DHT22;5508;49.150;11.030;2023-09-19T03:30:07;15.00;99.90
10911;DHT22;5508;49.150;11.030;2023-09-19T03:33:13;14.90;99.90
10911;DHT22;5508;49.150;11.030;2023-09-19T03:36:14;14.90;99.90
10911;DHT22;5508;49.150;11.030;2023-09-19T03:39:15;14.90;99.90
10911;DHT22;5508;49.150;11.030;2023-09-19T03:42:16;14.90;99.90
10911;DHT22;5508;49.150;11.030;2023-09-19T03:45:17;14.90;99.90
10911;DHT22;5508;49.150;11.030;2023-09-19T03:48:18;14.80;99.90
10911;DHT22;5508;49.150;11.030;2023-09-19T03:51:20;14.80;99.90
10911;DHT22;5508;49.150;11.030;2023-09-19T03:54:21;14.80;99.90
10911;DHT22;5508;49.150;11.030;2023-09-19T03:57:21;14.80;99.90
10911;DHT22;5508;49.150;11.030;2023-09-19T04:00:22;14.80;99.90
10911;DHT22;5508;49.150;11.030;2023-09-19T04:03:24;14.70;99.90
10911;DHT22;5508;49.150;11.030;2023-09-19T04:06:35;14.80;99.90
10911;DHT22;5508;49.150;11.030;2023-09-19T04:09:35;14.80;99.90
10911;DHT22;5508;49.150;11.030;2023-09-19T04:12:36;14.80;99.90
10911;DHT22;5508;49.150;11.030;2023-09-19T04:15:37;14.80;99.90
10911;DHT22;5508;49.150;11.030;2023-09-19T04:18:37;14.70;99.90
10911;DHT22;5508;49.150;11.030;2023-09-19T04:21:40;14.60;99.90
10911;DHT22;5508;49.150;11.030;2023-09-19T04:24:41;14.50;99.90
10911;DHT22;5508;49.150;11.030;2023-09-19T04:27:42;14.50;99.90
10911;DHT22;5508;49.150;11.030;2023-09-19T04:30:43;14.40;99.90
10911;DHT22;5508;49.150;11.030;2023-09-19T04:33:43;14.40;99.90
10911;DHT22;5508;49.150;11.030;2023-09-19T04:36:44;14.40;99.90
10911;DHT22;5508;49.150;11.030;2023-09-19T04:39:45;14.40;99.90
10911;DHT22;5508;49.150;11.030;2023-09-19T04:42:53;14.40;99.90
10911;DHT22;5508;49.150;11.030;2023-09-19T04:45:57;14.30;99.90
10911;DHT22;5508;49.150;11.030;2023-09-19T04:49:00;14.30;99.90
10911;DHT22;5508;49.150;11.030;2023-09-19T04:52:02;14.30;99.90
10911;DHT22;5508;49.150;11.030;2023-09-19T04:55:02;14.20;99.90
10911;DHT22;5508;49.150;11.030;2023-09-19T04:58:04;14.20;99.90
10911;DHT22;5508;49.150;11.030;2023-09-19T05:01:04;14.20;99.90
10911;DHT22;5508;49.150;11.030;2023-09-19T05:04:05;14.20;99.90
10911;DHT22;5508;49.150;11.030;2023-09-19T05:07:06;14.20;99.90
10911;DHT22;5508;49.150;11.030;2023-09-19T05:10:07;14.20;99.90
10911;DHT22;5508;49.150;11.030;2023-09-19T05:13:08;14.40;99.90
10911;DHT22;5508;49.150;11.030;2023-09-19T05:16:08;14.40;99.90
10911;DHT22;5508;49.150;11.030;2023-09-19T05:19:10;14.40;99.90
10911;DHT22;5508;49.150;11.030;2023-09-19T05:22:12;14.40;99.90
10911;DHT22;5508;49.150;11.030;2023-09-19T05:25:13;14.50;99.90
10911;DHT22;5508;49.150;11.030;2023-09-19T05:28:18;14.50;99.90
10911;DHT22;5508;49.150;11.030;2023-09-19T05:31:19;14.60;99.90
10911;DHT22;5508;49.150;11.030;2023-09-19T05:34:20;14.60;99.90
10911;DHT22;5508;49.150;11.030;2023-09-19T05:37:21;14.70;99.90
10911;DHT22;5508;49.150;11.030;2023-09-19T05:40:22;14.70;99.90
10911;DHT22;5508;49.150;11.030;2023-09-19T05:43:22;14.70;99.90
10911;DHT22;5508;49.150;11.030;2023-09-19T05:46:23;14.70;99.90
10911;DHT22;5508;49.150;11.030;2023-09-19T05:49:23;14.70;99.90
10911;DHT22;5508;49.150;11.030;2023-09-19T05:52:25;14.80;99.90
10911;DHT22;5508;49.150;11.030;2023-09-19T05:55:26;14.80;99.90
10911;DHT22;5508;49.150;11.030;2023-09-19T05:58:26;14.80;99.90
10911;DHT22;5508;49.150;11.030;2023-09-19T06:01:27;14.80;99.90
10911;DHT22;5508;49.150;11.030;2023-09-19T06:04:27;14.90;99.90
10911;DHT22;5508;49.150;11.030;2023-09-19T06:07:28;15.00;99.90
10911;DHT22;5508;49.150;11.030;2023-09-19T06:10:36;15.10;99.90
10911;DHT22;5508;49.150;11.030;2023-09-19T06:13:37;15.20;99.90
10911;DHT22;5508;49.150;11.030;2023-09-19T06:16:39;15.30;99.90
10911;DHT22;5508;49.150;11.030;2023-09-19T06:19:41;15.30;99.90
10911;DHT22;5508;49.150;11.030;2023-09-19T06:22:47;15.20;99.90
10911;DHT22;5508;49.150;11.030;2023-09-19T06:25:48;15.10;99.90
10911;DHT22;5508;49.150;11.030;2023-09-19T06:28:49;15.20;99.90
10911;DHT22;5508;49.150;11.030;2023-09-19T06:31:49;15.30;99.90
10911;DHT22;5508;49.150;11.030;2023-09-19T06:34:52;15.40;99.90
10911;DHT22;5508;49.150;11.030;2023-09-19T06:37:54;15.50;99.90
10911;DHT22;5508;49.150;11.030;2023-09-19T06:40:58;15.50;99.90
10911;DHT22;5508;49.150;11.030;2023-09-19T06:43:59;15.60;99.90
10911;DHT22;5508;49.150;11.030;2023-09-19T06:47:00;15.50;99.90
10911;DHT22;5508;49.150;11.030;2023-09-19T06:50:00;15.50;99.90
10911;DHT22;5508;49.150;11.030;2023-09-19T06:53:02;15.60;99.90
10911;DHT22;5508;49.150;11.030;2023-09-19T06:56:03;15.70;99.90
10911;DHT22;5508;49.150;11.030;2023-09-19T06:59:05;15.80;99.90
10911;DHT22;5508;49.150;11.030;2023-09-19T07:02:07;15.90;99.90
10911;DHT22;5508;49.150;11.030;2023-09-19T07:05:08;15.90;99.90
10911;DHT22;5508;49.150;11.030;2023-09-19T07:08:10;16.00;99.90
10911;DHT22;5508;49.150;11.030;2023-09-19T07:11:12;16.20;99.90
10911;DHT22;5508;49.150;11.030;2023-09-19T07:14:13;16.30;99.90
10911;DHT22;5508;49.150;11.030;2023-09-19T07:17:13;16.50;99.90
10911;DHT22;5508;49.150;11.030;2023-09-19T07:20:18;16.40;99.90
10911;DHT22;5508;49.150;11.030;2023-09-19T07:23:19;16.50;99.90
10911;DHT22;5508;49.150;11.030;2023-09-19T07:26:22;16.60;99.90
10911;DHT22;5508;49.150;11.030;2023-09-19T07:29:23;16.80;99.90
10911;DHT22;5508;49.150;11.030;2023-09-19T07:32:24;16.90;99.10
10911;DHT22;5508;49.150;11.030;2023-09-19T07:35:24;16.80;97.40
10911;DHT22;5508;49.150;11.030;2023-09-19T07:38:26;16.60;99.40
10911;DHT22;5508;49.150;11.030;2023-09-19T07:41:27;16.40;99.60
10911;DHT22;5508;49.150;11.030;2023-09-19T07:44:30;16.30;99.90
10911;DHT22;5508;49.150;11.030;2023-09-19T07:47:31;16.20;99.90
10911;DHT22;5508;49.150;11.030;2023-09-19T07:50:34;16.30;99.90
10911;DHT22;5508;49.150;11.030;2023-09-19T07:53:37;16.30;99.90
10911;DHT22;5508;49.150;11.030;2023-09-19T07:56:38;16.30;99.80
10911;DHT22;5508;49.150;11.030;2023-09-19T07:59:38;16.30;99.30
10911;DHT22;5508;49.150;11.030;2023-09-19T08:02:40;16.30;99.90
10911;DHT22;5508;49.150;11.030;2023-09-19T08:05:40;16.40;99.90
10911;DHT22;5508;49.150;11.030;2023-09-19T08:08:43;16.60;99.90
10911;DHT22;5508;49.150;11.030;2023-09-19T08:11:44;16.60;98.10
10911;DHT22;5508;49.150;11.030;2023-09-19T08:14:45;16.60;99.50
10911;DHT22;5508;49.150;11.030;2023-09-19T08:17:48;16.70;98.90
10911;DHT22;5508;49.150;11.030;2023-09-19T08:20:50;16.50;98.50
10911;DHT22;5508;49.150;11.030;2023-09-19T08:23:51;16.50;99.90
10911;DHT22;5508;49.150;11.030;2023-09-19T08:26:52;16.40;98.70
10911;DHT22;5508;49.150;11.030;2023-09-19T08:29:54;16.60;97.60
10911;DHT22;5508;49.150;11.030;2023-09-19T08:32:59;16.70;96.90
10911;DHT22;5508;49.150;11.030;2023-09-19T08:36:00;16.90;95.60
10911;DHT22;5508;49.150;11.030;2023-09-19T08:39:00;16.90;96.90
10911;DHT22;5508;49.150;11.030;2023-09-19T08:42:01;16.90;97.20
10911;DHT22;5508;49.150;11.030;2023-09-19T08:45:02;16.90;97.30
10911;DHT22;5508;49.150;11.030;2023-09-19T08:48:26;16.70;96.70
10911;DHT22;5508;49.150;11.030;2023-09-19T08:51:39;16.70;95.50
10911;DHT22;5508;49.150;11.030;2023-09-19T08:54:41;16.80;97.10
10911;DHT22;5508;49.150;11.030;2023-09-19T08:57:44;16.80;95.70
10911;DHT22;5508;49.150;11.030;2023-09-19T09:00:51;17.00;94.80
10911;DHT22;5508;49.150;11.030;2023-09-19T09:03:54;17.20;95.20
10911;DHT22;5508;49.150;11.030;2023-09-19T09:06:55;17.30;93.30
10911;DHT22;5508;49.150;11.030;2023-09-19T09:09:56;17.20;92.10
10911;DHT22;5508;49.150;11.030;2023-09-19T09:12:58;17.20;92.30
10911;DHT22;5508;49.150;11.030;2023-09-19T09:15:59;17.10;95.20
10911;DHT22;5508;49.150;11.030;2023-09-19T09:19:00;17.30;93.20
10911;DHT22;5508;49.150;11.030;2023-09-19T09:22:11;17.30;91.90
10911;DHT22;5508;49.150;11.030;2023-09-19T09:25:12;17.10;93.50
10911;DHT22;5508;49.150;11.030;2023-09-19T09:28:19;16.90;94.30
10911;DHT22;5508;49.150;11.030;2023-09-19T09:31:24;16.80;95.10
10911;DHT22;5508;49.150;11.030;2023-09-19T09:34:33;16.80;96.00
10911;DHT22;5508;49.150;11.030;2023-09-19T09:37:34;17.00;96.50
10911;DHT22;5508;49.150;11.030;2023-09-19T09:40:51;17.10;95.30
10911;DHT22;5508;49.150;11.030;2023-09-19T09:43:54;17.00;95.10
10911;DHT22;5508;49.150;11.030;2023-09-19T09:46:55;17.10;96.10
10911;DHT22;5508;49.150;11.030;2023-09-19T09:50:26;17.20;95.00
10911;DHT22;5508;49.150;11.030;2023-09-19T09:53:36;17.10;93.50
10911;DHT22;5508;49.150;11.030;2023-09-19T09:56:58;17.20;94.20
10911;DHT22;5508;49.150;11.030;2023-09-19T10:00:00;17.30;93.10
10911;DHT22;5508;49.150;11.030;2023-09-19T10:03:19;17.50;92.60
10911;DHT22;5508;49.150;11.030;2023-09-19T10:06:22;17.60;89.90
10911;DHT22;5508;49.150;11.030;2023-09-19T10:09:25;17.60;90.20
10911;DHT22;5508;49.150;11.030;2023-09-19T10:12:29;17.50;88.80
10911;DHT22;5508;49.150;11.030;2023-09-19T10:15:32;17.40;90.40
10911;DHT22;5508;49.150;11.030;2023-09-19T10:18:36;17.50;87.40
10911;DHT22;5508;49.150;11.030;2023-09-19T10:21:39;17.70;85.70
10911;DHT22;5508;49.150;11.030;2023-09-19T10:24:40;17.60;80.30
10911;DHT22;5508;49.150;11.030;2023-09-19T10:27:41;17.50;79.00
10911;DHT22;5508;49.150;11.030;2023-09-19T10:30:44;17.60;76.30
10911;DHT22;5508;49.150;11.030;2023-09-19T10:33:47;17.50;77.20
10911;DHT22;5508;49.150;11.030;2023-09-19T10:36:51;17.50;73.90
10911;DHT22;5508;49.150;11.030;2023-09-19T10:39:54;17.60;76.40
10911;DHT22;5508;49.150;11.030;2023-09-19T10:43:05;17.90;74.30
10911;DHT22;5508;49.150;11.030;2023-09-19T10:46:08;18.20;76.70
10911;DHT22;5508;49.150;11.030;2023-09-19T10:49:13;18.60;73.30
10911;DHT22;5508;49.150;11.030;2023-09-19T10:52:21;18.40;70.90
10911;DHT22;5508;49.150;11.030;2023-09-19T10:55:25;18.50;73.00
10911;DHT22;5508;49.150;11.030;2023-09-19T10:58:30;18.30;70.80
10911;DHT22;5508;49.150;11.030;2023-09-19T11:01:54;18.10;72.10
10911;DHT22;5508;49.150;11.030;2023-09-19T11:05:11;18.50;70.50
10911;DHT22;5508;49.150;11.030;2023-09-19T11:08:13;18.80;71.00
10911;DHT22;5508;49.150;11.030;2023-09-19T11:11:39;19.10;72.00
10911;DHT22;5508;49.150;11.030;2023-09-19T11:14:41;19.20;72.60
10911;DHT22;5508;49.150;11.030;2023-09-19T11:17:42;18.90;69.50
10911;DHT22;5508;49.150;11.030;2023-09-19T11:20:46;19.10;71.60
10911;DHT22;5508;49.150;11.030;2023-09-19T11:27:14;19.70;69.10
10911;DHT22;5508;49.150;11.030;2023-09-19T11:30:27;20.00;68.60
10911;DHT22;5508;49.150;11.030;2023-09-19T11:33:31;20.00;68.70
10911;DHT22;5508;49.150;11.030;2023-09-19T11:36:37;20.00;65.40
10911;DHT22;5508;49.150;11.030;2023-09-19T11:39:39;19.80;64.60
10911;DHT22;5508;49.150;11.030;2023-09-19T11:42:44;19.70;67.60
10911;DHT22;5508;49.150;11.030;2023-09-19T11:49:08;19.10;68.80
10911;DHT22;5508;49.150;11.030;2023-09-19T11:52:22;18.90;67.80
10911;DHT22;5508;49.150;11.030;2023-09-19T11:55:25;19.20;67.60
10911;DHT22;5508;49.150;11.030;2023-09-19T11:58:31;19.50;64.30
10911;DHT22;5508;49.150;11.030;2023-09-19T12:01:33;19.80;64.80
10911;DHT22;5508;49.150;11.030;2023-09-19T12:04:41;20.00;65.00
10911;DHT22;5508;49.150;11.030;2023-09-19T12:07:44;20.00;63.50
10911;DHT22;5508;49.150;11.030;2023-09-19T12:10:50;20.30;64.80
10911;DHT22;5508;49.150;11.030;2023-09-19T12:13:51;20.50;62.80
10911;DHT22;5508;49.150;11.030;2023-09-19T12:16:54;20.30;61.50
10911;DHT22;5508;49.150;11.030;2023-09-19T12:19:56;20.00;65.10
10911;DHT22;5508;49.150;11.030;2023-09-19T12:22:57;19.70;65.70
10911;DHT22;5508;49.150;11.030;2023-09-19T12:25:58;19.60;64.90
10911;DHT22;5508;49.150;11.030;2023-09-19T12:29:00;19.50;65.80
10911;DHT22;5508;49.150;11.030;2023-09-19T12:32:04;19.70;64.70
10911;DHT22;5508;49.150;11.030;2023-09-19T12:35:07;19.70;64.70
10911;DHT22;5508;49.150;11.030;2023-09-19T12:38:11;19.80;63.80
10911;DHT22;5508;49.150;11.030;2023-09-19T12:41:24;19.90;64.00
10911;DHT22;5508;49.150;11.030;2023-09-19T12:44:26;19.80;62.90
10911;DHT22;5508;49.150;11.030;2023-09-19T12:47:28;19.90;65.10
10911;DHT22;5508;49.150;11.030;2023-09-19T12:50:29;19.90;62.80
10911;DHT22;5508;49.150;11.030;2023-09-19T12:53:30;20.00;61.40
10911;DHT22;5508;49.150;11.030;2023-09-19T12:56:39;19.90;63.50
10911;DHT22;5508;49.150;11.030;2023-09-19T12:59:42;20.00;63.50
10911;DHT22;5508;49.150;11.030;2023-09-19T13:06:15;20.00;63.70
10911;DHT22;5508;49.150;11.030;2023-09-19T13:09:19;20.00;64.70
10911;DHT22;5508;49.150;11.030;2023-09-19T13:12:37;20.20;66.10
10911;DHT22;5508;49.150;11.030;2023-09-19T13:15:52;20.70;63.80
10911;DHT22;5508;49.150;11.030;2023-09-19T13:18:54;20.80;63.10
10911;DHT22;5508;49.150;11.030;2023-09-19T13:21:57;20.70;63.00
10911;DHT22;5508;49.150;11.030;2023-09-19T13:24:58;21.00;64.00
10911;DHT22;5508;49.150;11.030;2023-09-19T13:27:59;20.60;61.30
10911;DHT22;5508;49.150;11.030;2023-09-19T13:31:01;20.50;62.60
10911;DHT22;5508;49.150;11.030;2023-09-19T13:34:01;20.60;64.50
10911;DHT22;5508;49.150;11.030;2023-09-19T13:37:02;20.50;61.70
10911;DHT22;5508;49.150;11.030;2023-09-19T13:40:05;20.30;62.50
10911;DHT22;5508;49.150;11.030;2023-09-19T13:43:05;20.20;64.60
10911;DHT22;5508;49.150;11.030;2023-09-19T13:46:07;20.00;63.40
10911;DHT22;5508;49.150;11.030;2023-09-19T13:49:16;19.80;63.20
10911;DHT22;5508;49.150;11.030;2023-09-19T13:52:21;19.60;64.30
10911;DHT22;5508;49.150;11.030;2023-09-19T13:55:23;19.60;64.80
10911;DHT22;5508;49.150;11.030;2023-09-19T13:58:25;19.80;66.10
10911;DHT22;5508;49.150;11.030;2023-09-19T14:01:27;20.20;63.40
10911;DHT22;5508;49.150;11.030;2023-09-19T14:04:28;20.40;62.60
10911;DHT22;5508;49.150;11.030;2023-09-19T14:07:29;20.50;63.60
10911;DHT22;5508;49.150;11.030;2023-09-19T14:10:30;20.60;60.40
10911;DHT22;5508;49.150;11.030;2023-09-19T14:13:31;20.40;59.70
10911;DHT22;5508;49.150;11.030;2023-09-19T14:16:32;20.30;57.90
10911;DHT22;5508;49.150;11.030;2023-09-19T14:19:33;20.30;58.70
10911;DHT22;5508;49.150;11.030;2023-09-19T14:22:35;20.30;58.70
10911;DHT22;5508;49.150;11.030;2023-09-19T14:25:36;20.10;59.20
10911;DHT22;5508;49.150;11.030;2023-09-19T14:28:38;20.20;57.80
10911;DHT22;5508;49.150;11.030;2023-09-19T14:31:39;20.20;58.30
10911;DHT22;5508;49.150;11.030;2023-09-19T14:34:40;20.20;56.90
10911;DHT22;5508;49.150;11.030;2023-09-19T14:37:43;20.30;58.20
10911;DHT22;5508;49.150;11.030;2023-09-19T14:40:44;20.00;57.90
10911;DHT22;5508;49.150;11.030;2023-09-19T14:43:44;19.90;58.40
10911;DHT22;5508;49.150;11.030;2023-09-19T14:46:45;19.80;59.50
10911;DHT22;5508;49.150;11.030;2023-09-19T14:49:45;19.90;59.60
10911;DHT22;5508;49.150;11.030;2023-09-19T14:52:46;19.70;60.00
10911;DHT22;5508;49.150;11.030;2023-09-19T14:55:47;19.60;60.60
10911;DHT22;5508;49.150;11.030;2023-09-19T14:58:52;19.60;60.80
10911;DHT22;5508;49.150;11.030;2023-09-19T15:01:52;19.80;61.00
10911;DHT22;5508;49.150;11.030;2023-09-19T15:04:53;19.90;63.30
10911;DHT22;5508;49.150;11.030;2023-09-19T15:07:54;20.00;58.20
10911;DHT22;5508;49.150;11.030;2023-09-19T15:10:55;20.10;59.20
10911;DHT22;5508;49.150;11.030;2023-09-19T15:13:56;20.10;58.40
10911;DHT22;5508;49.150;11.030;2023-09-19T15:16:57;20.00;56.90
10911;DHT22;5508;49.150;11.030;2023-09-19T15:19:57;20.00;59.70
10911;DHT22;5508;49.150;11.030;2023-09-19T15:22:58;20.00;59.10
10911;DHT22;5508;49.150;11.030;2023-09-19T15:26:01;19.90;60.10
10911;DHT22;5508;49.150;11.030;2023-09-19T15:29:01;19.80;59.30
10911;DHT22;5508;49.150;11.030;2023-09-19T15:32:02;19.70;60.80
10911;DHT22;5508;49.150;11.030;2023-09-19T15:35:03;19.70;60.40
10911;DHT22;5508;49.150;11.030;2023-09-19T15:38:04;19.60;61.80
10911;DHT22;5508;49.150;11.030;2023-09-19T15:41:04;19.70;60.10
10911;DHT22;5508;49.150;11.030;2023-09-19T15:44:14;19.60;58.50
10911;DHT22;5508;49.150;11.030;2023-09-19T15:47:15;19.50;59.90
10911;DHT22;5508;49.150;11.030;2023-09-19T15:50:16;19.40;61.50
10911;DHT22;5508;49.150;11.030;2023-09-19T15:53:17;19.30;60.20
10911;DHT22;5508;49.150;11.030;2023-09-19T15:56:19;19.40;62.40
10911;DHT22;5508;49.150;11.030;2023-09-19T15:59:21;19.20;61.20
10911;DHT22;5508;49.150;11.030;2023-09-19T16:02:22;19.10;62.80
10911;DHT22;5508;49.150;11.030;2023-09-19T16:05:22;19.00;63.70
10911;DHT22;5508;49.150;11.030;2023-09-19T16:08:23;18.80;66.00
10911;DHT22;5508;49.150;11.030;2023-09-19T16:11:25;18.70;66.00
10911;DHT22;5508;49.150;11.030;2023-09-19T16:14:27;18.70;66.30
10911;DHT22;5508;49.150;11.030;2023-09-19T16:17:30;18.60;65.90
10911;DHT22;5508;49.150;11.030;2023-09-19T16:20:30;18.60;66.40
10911;DHT22;5508;49.150;11.030;2023-09-19T16:23:33;18.50;67.20
10911;DHT22;5508;49.150;11.030;2023-09-19T16:26:35;18.40;67.70
10911;DHT22;5508;49.150;11.030;2023-09-19T16:29:36;18.30;68.10
10911;DHT22;5508;49.150;11.030;2023-09-19T16:32:37;18.30;68.30
10911;DHT22;5508;49.150;11.030;2023-09-19T16:35:37;18.20;69.20
10911;DHT22;5508;49.150;11.030;2023-09-19T16:38:40;18.10;69.20
10911;DHT22;5508;49.150;11.030;2023-09-19T16:41:41;18.00;71.70
10911;DHT22;5508;49.150;11.030;2023-09-19T16:44:42;17.90;71.80
10911;DHT22;5508;49.150;11.030;2023-09-19T16:47:44;17.70;71.90
10911;DHT22;5508;49.150;11.030;2023-09-19T16:50:44;17.60;73.70
10911;DHT22;5508;49.150;11.030;2023-09-19T16:53:45;17.50;73.00
10911;DHT22;5508;49.150;11.030;2023-09-19T16:56:46;17.40;73.60
10911;DHT22;5508;49.150;11.030;2023-09-19T16:59:46;17.30;75.30
10911;DHT22;5508;49.150;11.030;2023-09-19T17:02:47;17.20;77.10
10911;DHT22;5508;49.150;11.030;2023-09-19T17:05:48;17.00;78.30
10911;DHT22;5508;49.150;11.030;2023-09-19T17:08:50;16.90;79.20
10911;DHT22;5508;49.150;11.030;2023-09-19T17:11:51;16.70;79.70
10911;DHT22;5508;49.150;11.030;2023-09-19T17:14:51;16.60;81.10
10911;DHT22;5508;49.150;11.030;2023-09-19T17:17:53;16.50;82.00
10911;DHT22;5508;49.150;11.030;2023-09-19T17:20:54;16.40;83.40
10911;DHT22;5508;49.150;11.030;2023-09-19T17:23:55;16.20;85.30
10911;DHT22;5508;49.150;11.030;2023-09-19T17:26:58;16.00;86.90
10911;DHT22;5508;49.150;11.030;2023-09-19T17:30:00;15.90;88.30
10911;DHT22;5508;49.150;11.030;2023-09-19T17:33:01;15.70;91.00
10911;DHT22;5508;49.150;11.030;2023-09-19T17:36:15;15.50;93.10
10911;DHT22;5508;49.150;11.030;2023-09-19T17:39:16;15.30;94.30
10911;DHT22;5508;49.150;11.030;2023-09-19T17:42:19;15.20;94.40
10911;DHT22;5508;49.150;11.030;2023-09-19T17:45:20;15.10;95.10
10911;DHT22;5508;49.150;11.030;2023-09-19T17:48:21;15.00;95.60
10911;DHT22;5508;49.150;11.030;2023-09-19T17:51:22;14.90;95.90
10911;DHT22;5508;49.150;11.030;2023-09-19T17:54:23;14.90;96.50
10911;DHT22;5508;49.150;11.030;2023-09-19T17:57:24;14.80;96.70
10911;DHT22;5508;49.150;11.030;2023-09-19T18:00:26;14.70;97.40
10911;DHT22;5508;49.150;11.030;2023-09-19T18:03:26;14.50;97.40
10911;DHT22;5508;49.150;11.030;2023-09-19T18:06:28;14.50;97.40
10911;DHT22;5508;49.150;11.030;2023-09-19T18:09:29;14.40;98.30
10911;DHT22;5508;49.150;11.030;2023-09-19T18:12:30;14.40;98.40
10911;DHT22;5508;49.150;11.030;2023-09-19T18:15:32;14.40;98.70
10911;DHT22;5508;49.150;11.030;2023-09-19T18:18:38;14.30;99.90
10911;DHT22;5508;49.150;11.030;2023-09-19T18:21:38;14.20;99.90
10911;DHT22;5508;49.150;11.030;2023-09-19T18:24:39;14.10;99.90
10911;DHT22;5508;49.150;11.030;2023-09-19T18:27:40;14.00;99.90
10911;DHT22;5508;49.150;11.030;2023-09-19T18:30:41;14.00;99.90
10911;DHT22;5508;49.150;11.030;2023-09-19T18:33:42;13.90;99.90
10911;DHT22;5508;49.150;11.030;2023-09-19T18:36:42;13.80;99.90
10911;DHT22;5508;49.150;11.030;2023-09-19T18:39:44;13.80;99.90
10911;DHT22;5508;49.150;11.030;2023-09-19T18:42:44;13.80;99.90
10911;DHT22;5508;49.150;11.030;2023-09-19T18:45:55;13.70;99.90
10911;DHT22;5508;49.150;11.030;2023-09-19T18:48:55;13.60;99.90
10911;DHT22;5508;49.150;11.030;2023-09-19T18:51:56;13.60;99.90
10911;DHT22;5508;49.150;11.030;2023-09-19T18:54:57;13.50;99.90
10911;DHT22;5508;49.150;11.030;2023-09-19T18:57:57;13.40;99.90
10911;DHT22;5508;49.150;11.030;2023-09-19T19:01:06;13.20;99.90
10911;DHT22;5508;49.150;11.030;2023-09-19T19:04:07;13.20;99.90
10911;DHT22;5508;49.150;11.030;2023-09-19T19:07:07;13.10;99.90
10911;DHT22;5508;49.150;11.030;2023-09-19T19:10:11;13.10;99.90
10911;DHT22;5508;49.150;11.030;2023-09-19T19:13:14;13.20;99.90
10911;DHT22;5508;49.150;11.030;2023-09-19T19:16:14;13.10;99.90
10911;DHT22;5508;49.150;11.030;2023-09-19T19:19:15;13.00;99.90
10911;DHT22;5508;49.150;11.030;2023-09-19T19:22:16;12.80;99.90
10911;DHT22;5508;49.150;11.030;2023-09-19T19:25:17;12.80;99.90
10911;DHT22;5508;49.150;11.030;2023-09-19T19:28:22;12.70;99.90
10911;DHT22;5508;49.150;11.030;2023-09-19T19:31:22;12.60;99.90
10911;DHT22;5508;49.150;11.030;2023-09-19T19:34:24;12.60;99.90